sensor_id;sensor_type;location;lat;lon;timestamp;pressure;altitude;pressure_sealevel;temperature;humidity
3812;BME280;1921;49.368;11.068;2023-12-22T00:01:16;96052.84;;;5.50;85.17
3812;BME280;1921;49.368;11.068;2023-12-22T00:03:43;95994.34;;;5.28;83.20
3812;BME280;1921;49.368;11.068;2023-12-22T00:06:08;95979.50;;;5.15;84.52
3812;BME280;1921;49.368;11.068;2023-12-22T00:08:34;96000.16;;;5.30;85.06
3812;BME280;1921;49.368;11.068;2023-12-22T00:11:00;96006.06;;;5.24;85.52
3812;BME280;1921;49.368;11.068;2023-12-22T00:13:26;96013.72;;;5.53;86.63
3812;BME280;1921;49.368;11.068;2023-12-22T00:15:52;96014.72;;;5.37;85.99
3812;BME280;1921;49.368;11.068;2023-12-22T00:18:18;96028.69;;;5.22;86.10
3812;BME280;1921;49.368;11.068;2023-12-22T00:20:44;96036.00;;;5.18;87.34
3812;BME280;1921;49.368;11.068;2023-12-22T00:23:09;96058.22;;;5.34;86.59
3812;BME280;1921;49.368;11.068;2023-12-22T00:25:38;96046.16;;;5.20;88.08
3812;BME280;1921;49.368;11.068;2023-12-22T00:28:04;96063.91;;;5.23;88.00
3812;BME280;1921;49.368;11.068;2023-12-22T00:30:30;96012.63;;;4.90;87.34
3812;BME280;1921;49.368;11.068;2023-12-22T00:32:55;95994.91;;;4.87;88.98
3812;BME280;1921;49.368;11.068;2023-12-22T00:35:21;96002.13;;;4.92;88.32
3812;BME280;1921;49.368;11.068;2023-12-22T00:37:47;96043.88;;;4.95;88.24
3812;BME280;1921;49.368;11.068;2023-12-22T00:40:13;95992.88;;;4.82;89.70
3812;BME280;1921;49.368;11.068;2023-12-22T00:42:39;96006.38;;;4.99;89.00
3812;BME280;1921;49.368;11.068;2023-12-22T00:45:05;96055.16;;;5.24;88.68
3812;BME280;1921;49.368;11.068;2023-12-22T00:47:31;96034.63;;;5.01;88.45
3812;BME280;1921;49.368;11.068;2023-12-22T00:50:00;96071.91;;;5.13;88.38
3812;BME280;1921;49.368;11.068;2023-12-22T00:52:26;96052.19;;;4.76;89.90
3812;BME280;1921;49.368;11.068;2023-12-22T00:54:52;96069.44;;;4.90;89.08
3812;BME280;1921;49.368;11.068;2023-12-22T00:57:17;96034.56;;;4.79;89.10
3812;BME280;1921;49.368;11.068;2023-12-22T00:59:43;96033.94;;;4.92;89.46
3812;BME280;1921;49.368;11.068;2023-12-22T01:02:16;96062.91;;;5.09;88.14
3812;BME280;1921;49.368;11.068;2023-12-22T01:04:44;96042.09;;;5.10;88.52
3812;BME280;1921;49.368;11.068;2023-12-22T01:07:11;96040.66;;;5.08;87.26
3812;BME280;1921;49.368;11.068;2023-12-22T01:09:37;96041.44;;;5.08;87.78
3812;BME280;1921;49.368;11.068;2023-12-22T01:12:04;96022.69;;;5.00;88.48
3812;BME280;1921;49.368;11.068;2023-12-22T01:14:30;96053.56;;;5.23;88.55
3812;BME280;1921;49.368;11.068;2023-12-22T01:16:56;96013.41;;;5.05;89.49
3812;BME280;1921;49.368;11.068;2023-12-22T01:19:22;96047.28;;;5.32;88.44
3812;BME280;1921;49.368;11.068;2023-12-22T01:21:48;96040.25;;;5.26;89.13
3812;BME280;1921;49.368;11.068;2023-12-22T01:24:13;96056.47;;;5.34;88.59
3812;BME280;1921;49.368;11.068;2023-12-22T01:26:39;96051.13;;;5.21;88.38
3812;BME280;1921;49.368;11.068;2023-12-22T01:29:05;96032.75;;;5.09;88.56
3812;BME280;1921;49.368;11.068;2023-12-22T01:31:31;96036.66;;;5.05;88.39
3812;BME280;1921;49.368;11.068;2023-12-22T01:33:56;96040.91;;;5.13;89.13
3812;BME280;1921;49.368;11.068;2023-12-22T01:36:22;96041.44;;;5.08;89.27
3812;BME280;1921;49.368;11.068;2023-12-22T01:38:48;96070.47;;;5.25;89.24
3812;BME280;1921;49.368;11.068;2023-12-22T01:41:14;96051.44;;;5.11;89.48
3812;BME280;1921;49.368;11.068;2023-12-22T01:43:39;96065.06;;;5.05;89.91
3812;BME280;1921;49.368;11.068;2023-12-22T01:46:06;96044.59;;;4.89;90.59
3812;BME280;1921;49.368;11.068;2023-12-22T01:48:33;96057.03;;;5.15;90.80
3812;BME280;1921;49.368;11.068;2023-12-22T01:51:01;96056.88;;;5.02;91.23
3812;BME280;1921;49.368;11.068;2023-12-22T01:53:28;96068.91;;;4.95;91.48
3812;BME280;1921;49.368;11.068;2023-12-22T01:55:55;96050.22;;;4.93;92.95
3812;BME280;1921;49.368;11.068;2023-12-22T01:58:23;96093.84;;;5.17;92.96
3812;BME280;1921;49.368;11.068;2023-12-22T02:00:49;96063.94;;;4.93;92.79
3812;BME280;1921;49.368;11.068;2023-12-22T02:03:16;96039.19;;;4.84;93.44
3812;BME280;1921;49.368;11.068;2023-12-22T02:05:43;96049.00;;;4.74;94.13
3812;BME280;1921;49.368;11.068;2023-12-22T02:08:10;96025.13;;;4.72;94.64
3812;BME280;1921;49.368;11.068;2023-12-22T02:10:37;96033.06;;;4.55;94.41
3812;BME280;1921;49.368;11.068;2023-12-22T02:13:04;96013.75;;;4.51;95.47
3812;BME280;1921;49.368;11.068;2023-12-22T02:15:31;96025.84;;;4.36;95.50
3812;BME280;1921;49.368;11.068;2023-12-22T02:18:16;96057.66;;;4.66;94.67
3812;BME280;1921;49.368;11.068;2023-12-22T02:20:44;96038.13;;;4.64;94.15
3812;BME280;1921;49.368;11.068;2023-12-22T02:23:10;96044.25;;;4.77;93.93
3812;BME280;1921;49.368;11.068;2023-12-22T02:25:36;96017.84;;;4.61;94.23
3812;BME280;1921;49.368;11.068;2023-12-22T02:28:17;96048.81;;;4.75;93.57
3812;BME280;1921;49.368;11.068;2023-12-22T02:33:23;96028.69;;;4.71;93.19
3812;BME280;1921;49.368;11.068;2023-12-22T02:35:50;96032.84;;;4.72;92.22
3812;BME280;1921;49.368;11.068;2023-12-22T02:38:18;96048.91;;;4.67;91.53
3812;BME280;1921;49.368;11.068;2023-12-22T02:40:45;96085.75;;;5.05;91.16
3812;BME280;1921;49.368;11.068;2023-12-22T02:43:11;96014.00;;;4.86;90.16
3812;BME280;1921;49.368;11.068;2023-12-22T02:45:37;96023.19;;;4.74;89.25
3812;BME280;1921;49.368;11.068;2023-12-22T02:48:03;96050.22;;;4.78;92.27
3812;BME280;1921;49.368;11.068;2023-12-22T02:50:29;96034.03;;;4.25;95.82
3812;BME280;1921;49.368;11.068;2023-12-22T02:52:54;96062.50;;;4.31;96.72
3812;BME280;1921;49.368;11.068;2023-12-22T02:55:20;96071.19;;;4.16;97.49
3812;BME280;1921;49.368;11.068;2023-12-22T02:57:46;96053.69;;;4.26;98.40
3812;BME280;1921;49.368;11.068;2023-12-22T03:00:12;96052.72;;;4.27;99.63
3812;BME280;1921;49.368;11.068;2023-12-22T03:02:37;96093.16;;;4.49;99.86
3812;BME280;1921;49.368;11.068;2023-12-22T03:05:04;96131.53;;;4.67;100.00
3812;BME280;1921;49.368;11.068;2023-12-22T03:07:30;96128.38;;;4.42;100.00
3812;BME280;1921;49.368;11.068;2023-12-22T03:09:56;96090.44;;;4.28;100.00
3812;BME280;1921;49.368;11.068;2023-12-22T03:12:21;96094.09;;;4.33;100.00
3812;BME280;1921;49.368;11.068;2023-12-22T03:14:47;96132.38;;;4.59;100.00
3812;BME280;1921;49.368;11.068;2023-12-22T03:17:13;96104.88;;;4.37;100.00
3812;BME280;1921;49.368;11.068;2023-12-22T03:19:40;96109.34;;;4.43;100.00
3812;BME280;1921;49.368;11.068;2023-12-22T03:22:05;96081.25;;;4.11;100.00
3812;BME280;1921;49.368;11.068;2023-12-22T03:24:31;96119.59;;;4.14;100.00
3812;BME280;1921;49.368;11.068;2023-12-22T03:26:57;96092.66;;;3.93;100.00
3812;BME280;1921;49.368;11.068;2023-12-22T03:29:23;96125.31;;;4.24;100.00
3812;BME280;1921;49.368;11.068;2023-12-22T03:31:48;96144.19;;;4.24;100.00
3812;BME280;1921;49.368;11.068;2023-12-22T03:34:14;96146.16;;;4.37;100.00
3812;BME280;1921;49.368;11.068;2023-12-22T03:36:40;96108.00;;;4.10;100.00
3812;BME280;1921;49.368;11.068;2023-12-22T03:39:06;96121.28;;;4.21;100.00
3812;BME280;1921;49.368;11.068;2023-12-22T03:41:31;96134.44;;;4.12;100.00
3812;BME280;1921;49.368;11.068;2023-12-22T03:43:57;96116.59;;;4.02;100.00
3812;BME280;1921;49.368;11.068;2023-12-22T03:46:24;96136.56;;;4.08;100.00
3812;BME280;1921;49.368;11.068;2023-12-22T03:48:53;96138.41;;;3.99;100.00
3812;BME280;1921;49.368;11.068;2023-12-22T03:51:18;96116.78;;;4.00;100.00
3812;BME280;1921;49.368;11.068;2023-12-22T03:53:44;96109.97;;;3.85;100.00
3812;BME280;1921;49.368;11.068;2023-12-22T03:56:10;96106.88;;;3.89;100.00
3812;BME280;1921;49.368;11.068;2023-12-22T03:58:37;96094.56;;;3.76;100.00
3812;BME280;1921;49.368;11.068;2023-12-22T04:01:03;96053.31;;;3.54;100.00
3812;BME280;1921;49.368;11.068;2023-12-22T04:03:29;96098.84;;;3.84;100.00
3812;BME280;1921;49.368;11.068;2023-12-22T04:05:55;96127.09;;;4.00;100.00
3812;BME280;1921;49.368;11.068;2023-12-22T04:08:20;96078.13;;;3.77;100.00
3812;BME280;1921;49.368;11.068;2023-12-22T04:10:47;96105.75;;;3.92;99.53
3812;BME280;1921;49.368;11.068;2023-12-22T04:13:13;96123.25;;;4.19;99.30
3812;BME280;1921;49.368;11.068;2023-12-22T04:15:39;96069.69;;;3.84;98.81
3812;BME280;1921;49.368;11.068;2023-12-22T04:18:05;96115.91;;;4.08;97.68
3812;BME280;1921;49.368;11.068;2023-12-22T04:20:30;96085.56;;;3.72;98.06
3812;BME280;1921;49.368;11.068;2023-12-22T04:22:57;96084.66;;;3.88;97.75
3812;BME280;1921;49.368;11.068;2023-12-22T04:25:23;96140.72;;;4.09;97.79
3812;BME280;1921;49.368;11.068;2023-12-22T04:27:50;96129.47;;;3.87;98.89
3812;BME280;1921;49.368;11.068;2023-12-22T04:30:16;96066.09;;;3.70;99.14
3812;BME280;1921;49.368;11.068;2023-12-22T04:32:42;96115.00;;;3.78;99.94
3812;BME280;1921;49.368;11.068;2023-12-22T04:35:07;96120.03;;;3.48;100.00
3812;BME280;1921;49.368;11.068;2023-12-22T04:37:34;96106.13;;;3.58;100.00
3812;BME280;1921;49.368;11.068;2023-12-22T04:40:00;96110.31;;;3.59;100.00
3812;BME280;1921;49.368;11.068;2023-12-22T04:42:26;96090.63;;;3.35;100.00
3812;BME280;1921;49.368;11.068;2023-12-22T04:44:52;96084.72;;;3.26;100.00
3812;BME280;1921;49.368;11.068;2023-12-22T04:47:18;96109.81;;;3.32;100.00
3812;BME280;1921;49.368;11.068;2023-12-22T04:49:44;96114.34;;;3.30;100.00
3812;BME280;1921;49.368;11.068;2023-12-22T04:52:11;96120.78;;;3.26;100.00
3812;BME280;1921;49.368;11.068;2023-12-22T04:54:38;96154.50;;;3.47;100.00
3812;BME280;1921;49.368;11.068;2023-12-22T04:57:04;96173.59;;;3.61;100.00
3812;BME280;1921;49.368;11.068;2023-12-22T04:59:31;96120.13;;;3.32;100.00
3812;BME280;1921;49.368;11.068;2023-12-22T05:01:57;96174.22;;;3.63;100.00
3812;BME280;1921;49.368;11.068;2023-12-22T05:04:23;96114.09;;;3.40;100.00
3812;BME280;1921;49.368;11.068;2023-12-22T05:06:49;96144.47;;;3.53;100.00
3812;BME280;1921;49.368;11.068;2023-12-22T05:09:15;96155.75;;;3.51;100.00
3812;BME280;1921;49.368;11.068;2023-12-22T05:11:41;96131.16;;;3.49;100.00
3812;BME280;1921;49.368;11.068;2023-12-22T05:14:08;96142.09;;;3.51;99.34
3812;BME280;1921;49.368;11.068;2023-12-22T05:16:34;96191.13;;;3.66;98.74
3812;BME280;1921;49.368;11.068;2023-12-22T05:19:00;96130.06;;;3.35;98.75
3812;BME280;1921;49.368;11.068;2023-12-22T05:21:26;96176.25;;;3.76;98.18
3812;BME280;1921;49.368;11.068;2023-12-22T05:23:53;96183.19;;;3.75;97.64
3812;BME280;1921;49.368;11.068;2023-12-22T05:26:20;96213.56;;;3.88;97.71
3812;BME280;1921;49.368;11.068;2023-12-22T05:28:46;96213.53;;;3.96;97.00
3812;BME280;1921;49.368;11.068;2023-12-22T05:31:18;96186.91;;;4.04;96.70
3812;BME280;1921;49.368;11.068;2023-12-22T05:33:44;96214.06;;;4.38;96.18
3812;BME280;1921;49.368;11.068;2023-12-22T05:36:10;96208.44;;;4.34;96.15
3812;BME280;1921;49.368;11.068;2023-12-22T05:38:39;96173.69;;;4.22;96.31
3812;BME280;1921;49.368;11.068;2023-12-22T05:41:06;96208.53;;;4.41;97.01
3812;BME280;1921;49.368;11.068;2023-12-22T05:43:32;96173.69;;;4.22;97.44
3812;BME280;1921;49.368;11.068;2023-12-22T05:46:01;96204.06;;;4.35;98.16
3812;BME280;1921;49.368;11.068;2023-12-22T05:48:27;96214.63;;;4.25;100.00
3812;BME280;1921;49.368;11.068;2023-12-22T05:50:59;96169.78;;;3.80;100.00
3812;BME280;1921;49.368;11.068;2023-12-22T05:53:25;96196.50;;;3.87;100.00
3812;BME280;1921;49.368;11.068;2023-12-22T05:55:50;96223.50;;;3.99;100.00
3812;BME280;1921;49.368;11.068;2023-12-22T05:58:16;96176.63;;;3.65;100.00
3812;BME280;1921;49.368;11.068;2023-12-22T06:00:42;96196.13;;;3.67;100.00
3812;BME280;1921;49.368;11.068;2023-12-22T06:03:08;96198.28;;;3.56;100.00
3812;BME280;1921;49.368;11.068;2023-12-22T06:05:33;96187.59;;;3.36;100.00
3812;BME280;1921;49.368;11.068;2023-12-22T06:07:59;96180.22;;;3.24;100.00
3812;BME280;1921;49.368;11.068;2023-12-22T06:10:25;96169.44;;;3.21;100.00
3812;BME280;1921;49.368;11.068;2023-12-22T06:12:51;96154.31;;;3.10;100.00
3812;BME280;1921;49.368;11.068;2023-12-22T06:15:16;96219.38;;;3.51;100.00
3812;BME280;1921;49.368;11.068;2023-12-22T06:17:42;96171.72;;;3.47;100.00
3812;BME280;1921;49.368;11.068;2023-12-22T06:20:08;96203.09;;;3.59;100.00
3812;BME280;1921;49.368;11.068;2023-12-22T06:22:34;96151.84;;;3.33;100.00
3812;BME280;1921;49.368;11.068;2023-12-22T06:25:00;96191.41;;;3.48;100.00
3812;BME280;1921;49.368;11.068;2023-12-22T06:27:28;96197.25;;;3.65;100.00
3812;BME280;1921;49.368;11.068;2023-12-22T06:29:54;96205.47;;;3.60;100.00
3812;BME280;1921;49.368;11.068;2023-12-22T06:32:21;96180.59;;;3.44;100.00
3812;BME280;1921;49.368;11.068;2023-12-22T06:34:47;96200.13;;;3.70;100.00
3812;BME280;1921;49.368;11.068;2023-12-22T06:37:12;96177.59;;;3.64;100.00
3812;BME280;1921;49.368;11.068;2023-12-22T06:39:38;96183.50;;;3.49;100.00
3812;BME280;1921;49.368;11.068;2023-12-22T06:42:04;96210.63;;;3.68;100.00
3812;BME280;1921;49.368;11.068;2023-12-22T06:44:37;96207.63;;;3.57;100.00
3812;BME280;1921;49.368;11.068;2023-12-22T06:47:02;96211.16;;;3.56;100.00
3812;BME280;1921;49.368;11.068;2023-12-22T06:49:28;96198.16;;;3.41;100.00
3812;BME280;1921;49.368;11.068;2023-12-22T06:51:54;96217.97;;;3.48;100.00
3812;BME280;1921;49.368;11.068;2023-12-22T06:54:20;96196.75;;;3.38;100.00
3812;BME280;1921;49.368;11.068;2023-12-22T06:56:45;96217.66;;;3.43;100.00
3812;BME280;1921;49.368;11.068;2023-12-22T06:59:11;96143.22;;;3.17;100.00
3812;BME280;1921;49.368;11.068;2023-12-22T07:01:37;96179.69;;;3.37;100.00
3812;BME280;1921;49.368;11.068;2023-12-22T07:04:04;96209.56;;;3.46;100.00
3812;BME280;1921;49.368;11.068;2023-12-22T07:06:33;96198.69;;;3.36;100.00
3812;BME280;1921;49.368;11.068;2023-12-22T07:11:46;96163.13;;;3.32;100.00
3812;BME280;1921;49.368;11.068;2023-12-22T07:14:12;96208.38;;;3.65;100.00
3812;BME280;1921;49.368;11.068;2023-12-22T07:16:38;96179.03;;;3.66;100.00
3812;BME280;1921;49.368;11.068;2023-12-22T07:19:05;96188.66;;;3.81;100.00
3812;BME280;1921;49.368;11.068;2023-12-22T07:21:31;96203.38;;;3.95;100.00
3812;BME280;1921;49.368;11.068;2023-12-22T07:23:57;96240.75;;;4.22;100.00
3812;BME280;1921;49.368;11.068;2023-12-22T07:26:24;96201.91;;;4.00;100.00
3812;BME280;1921;49.368;11.068;2023-12-22T07:28:52;96197.59;;;4.16;100.00
3812;BME280;1921;49.368;11.068;2023-12-22T07:31:18;96215.06;;;4.28;100.00
3812;BME280;1921;49.368;11.068;2023-12-22T07:33:44;96218.03;;;4.48;100.00
3812;BME280;1921;49.368;11.068;2023-12-22T07:36:10;96221.75;;;4.23;100.00
3812;BME280;1921;49.368;11.068;2023-12-22T07:38:37;96213.06;;;4.16;100.00
3812;BME280;1921;49.368;11.068;2023-12-22T07:41:05;96280.00;;;4.63;100.00
3812;BME280;1921;49.368;11.068;2023-12-22T07:43:31;96265.13;;;4.65;100.00
3812;BME280;1921;49.368;11.068;2023-12-22T07:45:57;96264.06;;;4.59;100.00
3812;BME280;1921;49.368;11.068;2023-12-22T07:48:23;96278.53;;;4.69;100.00
3812;BME280;1921;49.368;11.068;2023-12-22T07:50:49;96255.97;;;4.63;100.00
3812;BME280;1921;49.368;11.068;2023-12-22T07:53:15;96241.19;;;4.56;100.00
3812;BME280;1921;49.368;11.068;2023-12-22T07:55:41;96197.84;;;4.29;100.00
3812;BME280;1921;49.368;11.068;2023-12-22T07:58:07;96268.50;;;4.89;100.00
3812;BME280;1921;49.368;11.068;2023-12-22T08:00:33;96243.63;;;4.73;100.00
3812;BME280;1921;49.368;11.068;2023-12-22T08:02:59;96284.41;;;5.00;100.00
3812;BME280;1921;49.368;11.068;2023-12-22T08:05:26;96235.53;;;4.76;100.00
3812;BME280;1921;49.368;11.068;2023-12-22T08:07:52;96285.19;;;5.01;100.00
3812;BME280;1921;49.368;11.068;2023-12-22T08:10:18;96228.78;;;4.52;100.00
3812;BME280;1921;49.368;11.068;2023-12-22T08:12:43;96290.06;;;4.96;100.00
3812;BME280;1921;49.368;11.068;2023-12-22T08:15:09;96252.81;;;4.75;100.00
3812;BME280;1921;49.368;11.068;2023-12-22T08:17:50;96262.53;;;4.88;100.00
3812;BME280;1921;49.368;11.068;2023-12-22T08:20:21;96265.41;;;4.93;100.00
3812;BME280;1921;49.368;11.068;2023-12-22T08:22:48;96305.22;;;5.22;100.00
3812;BME280;1921;49.368;11.068;2023-12-22T08:25:14;96287.00;;;5.15;100.00
3812;BME280;1921;49.368;11.068;2023-12-22T08:27:40;96279.03;;;5.02;100.00
3812;BME280;1921;49.368;11.068;2023-12-22T08:30:07;96277.44;;;5.01;100.00
3812;BME280;1921;49.368;11.068;2023-12-22T08:32:33;96270.19;;;4.81;100.00
3812;BME280;1921;49.368;11.068;2023-12-22T08:34:59;96295.63;;;5.07;100.00
3812;BME280;1921;49.368;11.068;2023-12-22T08:37:25;96286.88;;;4.71;100.00
3812;BME280;1921;49.368;11.068;2023-12-22T08:39:50;96281.03;;;4.77;100.00
3812;BME280;1921;49.368;11.068;2023-12-22T08:42:17;96304.16;;;4.70;100.00
3812;BME280;1921;49.368;11.068;2023-12-22T08:44:43;96339.03;;;4.89;100.00
3812;BME280;1921;49.368;11.068;2023-12-22T08:47:09;96318.34;;;4.74;100.00
3812;BME280;1921;49.368;11.068;2023-12-22T08:49:36;96294.00;;;4.69;100.00
3812;BME280;1921;49.368;11.068;2023-12-22T08:52:02;96348.00;;;5.01;100.00
3812;BME280;1921;49.368;11.068;2023-12-22T08:54:29;96312.72;;;4.71;100.00
3812;BME280;1921;49.368;11.068;2023-12-22T08:56:55;96363.91;;;5.13;100.00
3812;BME280;1921;49.368;11.068;2023-12-22T08:59:21;96347.88;;;5.18;100.00
3812;BME280;1921;49.368;11.068;2023-12-22T09:01:48;96335.78;;;5.33;100.00
3812;BME280;1921;49.368;11.068;2023-12-22T09:04:14;96358.09;;;5.49;100.00
3812;BME280;1921;49.368;11.068;2023-12-22T09:06:41;96301.91;;;5.28;100.00
3812;BME280;1921;49.368;11.068;2023-12-22T09:09:07;96315.13;;;5.48;100.00
3812;BME280;1921;49.368;11.068;2023-12-22T09:11:36;96297.91;;;5.40;100.00
3812;BME280;1921;49.368;11.068;2023-12-22T09:14:02;96294.09;;;5.51;100.00
3812;BME280;1921;49.368;11.068;2023-12-22T09:16:27;96335.81;;;5.62;100.00
3812;BME280;1921;49.368;11.068;2023-12-22T09:18:53;96337.22;;;5.50;100.00
3812;BME280;1921;49.368;11.068;2023-12-22T09:21:19;96294.78;;;5.30;100.00
3812;BME280;1921;49.368;11.068;2023-12-22T09:23:45;96347.16;;;5.61;100.00
3812;BME280;1921;49.368;11.068;2023-12-22T09:26:15;96331.53;;;5.55;100.00
3812;BME280;1921;49.368;11.068;2023-12-22T09:28:42;96319.22;;;5.57;100.00
3812;BME280;1921;49.368;11.068;2023-12-22T09:31:08;96342.69;;;5.85;100.00
3812;BME280;1921;49.368;11.068;2023-12-22T09:33:34;96293.47;;;5.63;100.00
3812;BME280;1921;49.368;11.068;2023-12-22T09:36:00;96320.75;;;5.96;100.00
3812;BME280;1921;49.368;11.068;2023-12-22T09:38:26;96336.22;;;6.04;100.00
3812;BME280;1921;49.368;11.068;2023-12-22T09:40:54;96281.16;;;5.80;100.00
3812;BME280;1921;49.368;11.068;2023-12-22T09:43:20;96276.25;;;5.71;99.81
3812;BME280;1921;49.368;11.068;2023-12-22T09:45:46;96278.56;;;5.80;99.72
3812;BME280;1921;49.368;11.068;2023-12-22T09:48:13;96309.22;;;6.13;99.29
3812;BME280;1921;49.368;11.068;2023-12-22T09:50:44;96290.25;;;6.06;98.92
3812;BME280;1921;49.368;11.068;2023-12-22T09:53:14;96302.84;;;6.09;99.32
3812;BME280;1921;49.368;11.068;2023-12-22T09:55:45;96329.41;;;5.88;100.00
3812;BME280;1921;49.368;11.068;2023-12-22T09:58:15;96284.03;;;5.41;100.00
3812;BME280;1921;49.368;11.068;2023-12-22T10:00:43;96316.81;;;5.55;100.00
3812;BME280;1921;49.368;11.068;2023-12-22T10:03:11;96305.41;;;5.35;100.00
3812;BME280;1921;49.368;11.068;2023-12-22T10:05:40;96315.56;;;5.51;100.00
3812;BME280;1921;49.368;11.068;2023-12-22T10:08:06;96315.66;;;5.58;100.00
3812;BME280;1921;49.368;11.068;2023-12-22T10:10:36;96302.28;;;5.54;100.00
3812;BME280;1921;49.368;11.068;2023-12-22T10:13:03;96340.34;;;5.90;100.00
3812;BME280;1921;49.368;11.068;2023-12-22T10:15:33;96331.28;;;5.79;100.00
3812;BME280;1921;49.368;11.068;2023-12-22T10:17:59;96295.06;;;5.79;100.00
3812;BME280;1921;49.368;11.068;2023-12-22T10:20:25;96273.75;;;5.48;100.00
3812;BME280;1921;49.368;11.068;2023-12-22T10:22:50;96273.56;;;5.64;100.00
3812;BME280;1921;49.368;11.068;2023-12-22T10:25:20;96311.66;;;6.00;100.00
3812;BME280;1921;49.368;11.068;2023-12-22T10:27:46;96250.72;;;5.82;100.00
3812;BME280;1921;49.368;11.068;2023-12-22T10:30:12;96275.91;;;6.25;100.00
3812;BME280;1921;49.368;11.068;2023-12-22T10:32:40;96278.53;;;6.46;100.00
3812;BME280;1921;49.368;11.068;2023-12-22T10:35:09;96287.41;;;6.37;100.00
3812;BME280;1921;49.368;11.068;2023-12-22T10:37:35;96253.59;;;6.24;100.00
3812;BME280;1921;49.368;11.068;2023-12-22T10:40:04;96280.44;;;6.37;100.00
3812;BME280;1921;49.368;11.068;2023-12-22T10:42:32;96249.22;;;6.24;100.00
3812;BME280;1921;49.368;11.068;2023-12-22T10:44:58;96285.19;;;6.34;100.00
3812;BME280;1921;49.368;11.068;2023-12-22T10:47:23;96287.69;;;6.27;100.00
3812;BME280;1921;49.368;11.068;2023-12-22T10:49:49;96229.06;;;5.98;100.00
3812;BME280;1921;49.368;11.068;2023-12-22T10:52:17;96272.13;;;6.06;100.00
3812;BME280;1921;49.368;11.068;2023-12-22T10:54:51;96233.34;;;5.91;100.00
3812;BME280;1921;49.368;11.068;2023-12-22T10:57:18;96230.22;;;5.81;100.00
3812;BME280;1921;49.368;11.068;2023-12-22T10:59:46;96254.88;;;6.13;100.00
3812;BME280;1921;49.368;11.068;2023-12-22T11:02:17;96262.97;;;6.25;100.00
3812;BME280;1921;49.368;11.068;2023-12-22T11:05:02;96232.97;;;5.94;100.00
3812;BME280;1921;49.368;11.068;2023-12-22T11:07:34;96273.25;;;6.18;100.00
3812;BME280;1921;49.368;11.068;2023-12-22T11:10:05;96261.59;;;6.07;100.00
3812;BME280;1921;49.368;11.068;2023-12-22T11:12:38;96265.88;;;6.15;100.00
3812;BME280;1921;49.368;11.068;2023-12-22T11:15:05;96251.63;;;6.04;100.00
3812;BME280;1921;49.368;11.068;2023-12-22T11:17:33;96217.16;;;5.89;100.00
3812;BME280;1921;49.368;11.068;2023-12-22T11:20:03;96253.50;;;5.96;100.00
3812;BME280;1921;49.368;11.068;2023-12-22T11:22:32;96263.03;;;5.95;100.00
3812;BME280;1921;49.368;11.068;2023-12-22T11:24:58;96272.09;;;6.20;100.00
3812;BME280;1921;49.368;11.068;2023-12-22T11:27:26;96266.28;;;6.18;100.00
3812;BME280;1921;49.368;11.068;2023-12-22T11:29:53;96259.59;;;6.24;100.00
3812;BME280;1921;49.368;11.068;2023-12-22T11:32:20;96246.69;;;6.09;100.00
3812;BME280;1921;49.368;11.068;2023-12-22T11:34:46;96274.84;;;6.34;100.00
3812;BME280;1921;49.368;11.068;2023-12-22T11:37:15;96241.72;;;6.29;100.00
3812;BME280;1921;49.368;11.068;2023-12-22T11:39:45;96249.03;;;6.26;100.00
3812;BME280;1921;49.368;11.068;2023-12-22T11:42:19;96205.44;;;6.08;100.00
3812;BME280;1921;49.368;11.068;2023-12-22T11:44:47;96245.63;;;6.40;100.00
3812;BME280;1921;49.368;11.068;2023-12-22T11:47:14;96225.50;;;6.42;100.00
3812;BME280;1921;49.368;11.068;2023-12-22T11:49:40;96213.97;;;6.44;100.00
3812;BME280;1921;49.368;11.068;2023-12-22T11:52:17;96198.75;;;6.56;100.00
3812;BME280;1921;49.368;11.068;2023-12-22T11:54:51;96205.06;;;6.47;100.00
3812;BME280;1921;49.368;11.068;2023-12-22T11:57:30;96199.34;;;6.58;100.00
3812;BME280;1921;49.368;11.068;2023-12-22T12:00:01;96174.28;;;6.59;100.00
3812;BME280;1921;49.368;11.068;2023-12-22T12:02:30;96183.19;;;6.78;100.00
3812;BME280;1921;49.368;11.068;2023-12-22T12:04:58;96144.34;;;6.56;100.00
3812;BME280;1921;49.368;11.068;2023-12-22T12:07:46;96136.81;;;6.61;100.00
3812;BME280;1921;49.368;11.068;2023-12-22T12:13:14;96110.59;;;6.71;100.00
3812;BME280;1921;49.368;11.068;2023-12-22T12:15:47;96108.50;;;6.53;100.00
3812;BME280;1921;49.368;11.068;2023-12-22T12:18:13;96124.78;;;6.82;100.00
3812;BME280;1921;49.368;11.068;2023-12-22T12:20:40;96092.72;;;6.83;100.00
3812;BME280;1921;49.368;11.068;2023-12-22T12:23:06;96142.84;;;6.96;100.00
3812;BME280;1921;49.368;11.068;2023-12-22T12:25:45;96104.69;;;6.84;100.00
3812;BME280;1921;49.368;11.068;2023-12-22T12:28:35;96085.81;;;6.96;100.00
3812;BME280;1921;49.368;11.068;2023-12-22T12:31:08;96083.66;;;7.07;100.00
3812;BME280;1921;49.368;11.068;2023-12-22T12:33:46;96070.66;;;6.93;100.00
3812;BME280;1921;49.368;11.068;2023-12-22T12:36:12;96070.34;;;6.75;100.00
3812;BME280;1921;49.368;11.068;2023-12-22T12:38:53;96066.75;;;6.76;100.00
3812;BME280;1921;49.368;11.068;2023-12-22T12:41:29;96039.28;;;6.82;100.00
3812;BME280;1921;49.368;11.068;2023-12-22T12:43:56;96044.50;;;6.88;100.00
3812;BME280;1921;49.368;11.068;2023-12-22T12:46:23;96035.34;;;6.86;100.00
3812;BME280;1921;49.368;11.068;2023-12-22T12:49:02;96062.50;;;6.96;100.00
3812;BME280;1921;49.368;11.068;2023-12-22T12:51:27;96085.72;;;7.18;100.00
3812;BME280;1921;49.368;11.068;2023-12-22T12:53:53;96068.91;;;7.07;100.00
3812;BME280;1921;49.368;11.068;2023-12-22T12:56:19;96034.78;;;6.90;100.00
3812;BME280;1921;49.368;11.068;2023-12-22T12:58:44;96038.81;;;7.06;100.00
3812;BME280;1921;49.368;11.068;2023-12-22T13:01:10;96044.63;;;7.15;100.00
3812;BME280;1921;49.368;11.068;2023-12-22T13:03:54;96065.19;;;7.16;100.00
3812;BME280;1921;49.368;11.068;2023-12-22T13:06:20;96060.81;;;7.23;100.00
3812;BME280;1921;49.368;11.068;2023-12-22T13:08:52;96026.84;;;7.05;100.00
3812;BME280;1921;49.368;11.068;2023-12-22T13:11:23;96048.44;;;7.25;100.00
3812;BME280;1921;49.368;11.068;2023-12-22T13:13:50;96049.44;;;7.24;100.00
3812;BME280;1921;49.368;11.068;2023-12-22T13:16:20;96049.69;;;7.43;99.51
3812;BME280;1921;49.368;11.068;2023-12-22T13:18:48;96017.41;;;7.45;99.05
3812;BME280;1921;49.368;11.068;2023-12-22T13:21:14;96046.56;;;7.67;97.91
3812;BME280;1921;49.368;11.068;2023-12-22T13:23:43;96051.94;;;7.72;97.82